Aérodrome :
LOGIN :

S'inscrire | Disclaimer

   EN    FR    IT 

 










Légende :    VFR   VFR Marginal   IFR   IFR Intensif   IFR Très Intensif
Visi : 
Plafond : 
>= 8 km
>= 3000ft
5 à 8 km
1000 à 3000 ft
1500m à 5 km
500 à 1000 ft
800 à 1500m
200 à 500 ft
< 800m
< 200 ft
Symboles :   Orages  Brouillard  Fortes neiges  Fortes précipitations  Vent > 20 kt
SIGMETs :   Divers  Orages  Givrage  Turbulence  Onde Orograph.  Cendres Volcan.






- Altitude de l'aérodrome : 184 ft
- Code IATA : BRU


EBBR - Bruxelles

DERNIER METAR :
  • 270550Z 21013KT 3500 -DZ SCT004 BKN008 02/00 Q1011 TEMPO 6000 -DZ

METARs EXPIRÉS :
  • 270520Z 20011KT 6000 -DZ SCT005 BKN008 02/00 Q1011 TEMPO 4000 -DZ SCT007 BKN011
  • 270450Z 20012KT 4500 -DZ SCT004 BKN008 02/00 Q1011 TEMPO 6000 -DZ SCT007 BKN011
  • 270420Z 20012KT 170V230 4500 -DZ SCT005 BKN009 01/M00 Q1012 TEMPO 6000 -DZ SCT007 BKN011
  • 270350Z 20011KT 9999 -DZ SCT008 BKN011 01/M00 Q1012 TEMPO 4000 -RADZ SCT004 BKN008

TAF TAF EBBR
Valide du 27 à 06h jusqu'au 28 à 12h UTC


270520Z 2706/2812 20013KT 8000 SCT008 BKN013
TEMPO 2706/2720 2000 DZ BKN006
PROB40
TEMPO 2720/2724 SCT014
TEMPO 2802/2812 2200 RADZ RA BKN004



MET'MAP, la Météo Aéronautique d'un coup d'oeil ! - Copyright ORBIFLY Décembre 2007 - Disclaimer

ORBIFLY MET'MAP TEAM :

Programmation & Développement : Alexandra Zaïnal
Sur une idée originale de : Baudouin d'Aumeries
Assistance à la programmation : Marc-Olivier Méhu
Soutien technique & logistique : Manuel Goepfert

Contact : metmap@orbifly.com




SOURCES & CREDITS :

   NOAA